Time;durP1;ratioP1;P1;durP2;ratioP2;P2;SDS_P1;SDS_P2;PMS_P1;PMS_P2;Temp;Humidity;BMP_temperature;BMP_pressure;BME280_temperature;BME280_humidity;BME280_pressure;Samples;Min_cycle;Max_cycle;Signal;HPM_P1;HPM_P2
2022/01/31 00:00:30;;;;;;;1.50;1.40;;;3.10;99.90;;;;;;5044670;28;20288;-62
2022/01/31 00:02:57;;;;;;;1.50;1.40;;;3.10;99.90;;;;;;5044093;28;20208;-63
2022/01/31 00:05:25;;;;;;;1.60;1.50;;;3.10;99.90;;;;;;5042031;28;20197;-64
2022/01/31 00:07:52;;;;;;;1.20;1.20;;;3.20;99.90;;;;;;5043813;28;20251;-62
2022/01/31 00:10:27;;;;;;;1.67;1.43;;;3.20;99.90;;;;;;5045922;28;20682;-63
2022/01/31 00:12:59;;;;;;;1.57;1.43;;;3.20;99.90;;;;;;5047118;28;20207;-63
2022/01/31 00:15:26;;;;;;;1.77;1.67;;;3.20;99.90;;;;;;5044803;28;20211;-62
2022/01/31 00:17:53;;;;;;;1.37;1.30;;;3.20;99.90;;;;;;5043944;28;20311;-62
2022/01/31 00:20:20;;;;;;;1.40;1.30;;;3.20;99.90;;;;;;5040596;28;20228;-62
2022/01/31 00:22:49;;;;;;;1.30;1.20;;;3.30;99.90;;;;;;5035845;28;20247;-61
2022/01/31 00:25:16;;;;;;;1.50;1.40;;;3.30;99.90;;;;;;5035945;28;20311;-62
2022/01/31 00:27:43;;;;;;;1.40;1.30;;;3.40;99.90;;;;;;5039056;28;20229;-62
2022/01/31 00:30:11;;;;;;;1.40;1.30;;;3.40;99.90;;;;;;5064313;28;20279;-63
2022/01/31 00:32:38;;;;;;;1.60;1.50;;;3.30;99.90;;;;;;5066563;28;20274;-63
2022/01/31 00:35:06;;;;;;;1.90;1.40;;;3.40;99.90;;;;;;5064414;28;20865;-62
2022/01/31 00:37:33;;;;;;;1.53;1.43;;;3.40;99.90;;;;;;5063908;28;20360;-62
2022/01/31 00:40:01;;;;;;;1.73;1.60;;;3.40;99.90;;;;;;5062723;28;20215;-62
2022/01/31 00:42:29;;;;;;;1.50;1.40;;;3.40;99.90;;;;;;5068688;28;20265;-62
2022/01/31 00:45:06;;;;;;;1.70;1.60;;;3.30;99.90;;;;;;5061854;28;20224;-61
2022/01/31 00:47:33;;;;;;;1.70;1.60;;;3.20;99.90;;;;;;5064516;28;20192;-67
2022/01/31 00:50:06;;;;;;;2.00;1.80;;;3.20;99.90;;;;;;5067728;28;20200;-63
2022/01/31 00:52:34;;;;;;;1.67;1.57;;;3.20;99.90;;;;;;5072907;28;20226;-62
2022/01/31 00:55:03;;;;;;;1.60;1.50;;;3.20;99.90;;;;;;5070221;28;20219;-63
2022/01/31 00:57:30;;;;;;;1.60;1.50;;;3.20;99.90;;;;;;5066678;28;20228;-62
2022/01/31 00:59:57;;;;;;;1.80;1.70;;;3.20;99.90;;;;;;5067728;28;20212;-63
2022/01/31 01:02:26;;;;;;;2.17;1.90;;;3.10;99.90;;;;;;5071816;28;20203;-61
2022/01/31 01:04:53;;;;;;;1.60;1.50;;;3.10;99.90;;;;;;5073812;28;20309;-62
2022/01/31 01:07:20;;;;;;;1.70;1.60;;;3.10;99.90;;;;;;5062477;28;20286;-62
2022/01/31 01:09:47;;;;;;;1.50;1.40;;;3.20;99.90;;;;;;5067772;28;20235;-63
2022/01/31 01:12:18;;;;;;;1.50;1.40;;;3.20;99.90;;;;;;5050640;28;20543;-60
2022/01/31 01:14:46;;;;;;;1.47;1.37;;;3.20;99.90;;;;;;5041905;28;20192;-62
2022/01/31 01:17:13;;;;;;;1.50;1.40;;;3.20;99.90;;;;;;5039905;28;20212;-62
2022/01/31 01:19:40;;;;;;;1.50;1.40;;;3.20;99.90;;;;;;5042938;28;20207;-62
2022/01/31 01:22:07;;;;;;;1.93;1.77;;;3.20;99.90;;;;;;5045517;28;20214;-61
2022/01/31 01:24:34;;;;;;;1.70;1.60;;;3.10;99.90;;;;;;5050597;28;20258;-62
2022/01/31 01:27:01;;;;;;;1.60;1.50;;;3.20;99.90;;;;;;5070800;28;20275;-63
2022/01/31 01:29:29;;;;;;;2.53;1.50;;;3.20;99.90;;;;;;5064420;28;20693;-63
2022/01/31 01:31:56;;;;;;;1.50;1.40;;;3.30;99.90;;;;;;5062051;28;20850;-63
2022/01/31 01:34:25;;;;;;;1.60;1.50;;;3.30;99.90;;;;;;5063070;28;20196;-62
2022/01/31 01:36:53;;;;;;;2.00;1.60;;;3.30;99.90;;;;;;5062964;28;20631;-61
2022/01/31 01:39:20;;;;;;;1.37;1.30;;;3.40;99.90;;;;;;5061387;28;20223;-62
2022/01/31 01:41:47;;;;;;;1.20;1.10;;;3.50;99.90;;;;;;5064155;28;20197;-62
2022/01/31 01:44:14;;;;;;;1.40;1.30;;;3.50;99.90;;;;;;5061271;28;20774;-63
2022/01/31 01:46:42;;;;;;;1.37;1.27;;;3.50;99.90;;;;;;5058483;28;20285;-63
2022/01/31 01:49:09;;;;;;;1.60;1.50;;;3.60;99.90;;;;;;5062011;28;20212;-63
2022/01/31 01:51:38;;;;;;;1.50;1.27;;;3.60;99.90;;;;;;5060468;28;20308;-61
2022/01/31 01:54:05;;;;;;;1.47;1.27;;;3.60;99.90;;;;;;5061339;28;20191;-63
2022/01/31 01:56:32;;;;;;;1.50;1.40;;;3.60;99.90;;;;;;5061807;28;20204;-61
2022/01/31 01:59:04;;;;;;;1.63;1.50;;;3.50;99.90;;;;;;5057925;28;20227;-61
2022/01/31 02:01:31;;;;;;;1.53;1.43;;;3.50;99.90;;;;;;5062103;28;20203;-63
2022/01/31 02:03:59;;;;;;;1.63;1.50;;;3.40;99.90;;;;;;5057751;28;20662;-62
2022/01/31 02:06:26;;;;;;;1.77;1.67;;;3.30;99.90;;;;;;5060294;28;20206;-62
2022/01/31 02:08:53;;;;;;;1.50;1.40;;;3.40;99.90;;;;;;5062040;28;20306;-63
2022/01/31 02:11:21;;;;;;;2.73;1.80;;;3.30;99.90;;;;;;5060498;28;20297;-62
2022/01/31 02:13:48;;;;;;;1.70;1.60;;;3.30;99.90;;;;;;5060574;28;20191;-63
2022/01/31 02:16:15;;;;;;;1.43;1.33;;;3.40;99.90;;;;;;5061468;28;20755;-62
2022/01/31 02:18:48;;;;;;;1.47;1.37;;;3.30;99.90;;;;;;5059714;28;20227;-63
2022/01/31 02:21:17;;;;;;;1.50;1.40;;;3.40;99.90;;;;;;5060360;28;20200;-62
2022/01/31 02:23:44;;;;;;;1.40;1.30;;;3.50;99.90;;;;;;5061275;28;20272;-63
2022/01/31 02:26:11;;;;;;;1.47;1.37;;;3.60;99.90;;;;;;5062358;28;20301;-63
2022/01/31 02:28:39;;;;;;;2.37;1.53;;;3.70;99.90;;;;;;5057486;28;20307;-63
2022/01/31 02:31:07;;;;;;;1.40;1.30;;;3.70;99.90;;;;;;5059757;28;20200;-61
2022/01/31 02:33:34;;;;;;;1.33;1.30;;;3.80;99.90;;;;;;5061795;28;20199;-62
2022/01/31 02:36:03;;;;;;;1.87;1.63;;;3.80;99.90;;;;;;5061946;28;20203;-62
2022/01/31 02:38:32;;;;;;;1.70;1.60;;;3.90;99.90;;;;;;5062013;28;20314;-62
2022/01/31 02:40:59;;;;;;;1.97;1.53;;;3.90;99.90;;;;;;5062311;28;20601;-62
2022/01/31 02:43:27;;;;;;;2.00;1.30;;;4.00;99.90;;;;;;5063163;28;20286;-62
2022/01/31 02:45:54;;;;;;;1.87;1.67;;;4.00;99.90;;;;;;5063812;28;20310;-62
2022/01/31 02:48:24;;;;;;;2.10;1.73;;;4.00;99.90;;;;;;5062599;28;20246;-63
2022/01/31 02:50:52;;;;;;;1.47;1.37;;;3.90;99.90;;;;;;5062985;28;20219;-62
2022/01/31 02:53:24;;;;;;;1.57;1.47;;;4.00;99.90;;;;;;5061332;28;20206;-63
2022/01/31 02:55:54;;;;;;;1.60;1.50;;;3.90;99.90;;;;;;5063946;28;20267;-63
2022/01/31 02:58:21;;;;;;;1.50;1.40;;;4.00;99.90;;;;;;5061354;28;20294;-63
2022/01/31 03:00:48;;;;;;;1.80;1.70;;;4.00;99.90;;;;;;5065873;28;20230;-63
2022/01/31 03:03:15;;;;;;;1.43;1.33;;;4.00;99.90;;;;;;5064716;28;20260;-63
2022/01/31 03:05:42;;;;;;;1.70;1.60;;;4.00;99.90;;;;;;5068280;28;20341;-62
2022/01/31 03:08:09;;;;;;;1.97;1.83;;;3.90;99.90;;;;;;5068821;28;20298;-61
2022/01/31 03:10:36;;;;;;;1.57;1.47;;;3.90;99.90;;;;;;5071614;28;20237;-62
2022/01/31 03:13:05;;;;;;;1.47;1.37;;;4.00;99.90;;;;;;5061622;28;20235;-63
2022/01/31 03:15:32;;;;;;;1.77;1.67;;;4.00;99.90;;;;;;5057921;28;20302;-61
2022/01/31 03:17:59;;;;;;;1.50;1.40;;;4.00;99.90;;;;;;5057372;28;20725;-61
2022/01/31 03:20:27;;;;;;;1.40;1.30;;;4.10;99.90;;;;;;5061161;28;20200;-62
2022/01/31 03:22:54;;;;;;;1.90;1.70;;;4.10;99.90;;;;;;5058487;28;20210;-67
2022/01/31 03:25:21;;;;;;;1.50;1.40;;;4.20;99.90;;;;;;5060352;28;20522;-62
2022/01/31 03:27:49;;;;;;;1.47;1.37;;;4.30;99.90;;;;;;5053906;28;20294;-63
2022/01/31 03:30:21;;;;;;;1.50;1.40;;;4.30;99.90;;;;;;5044418;28;20208;-63
2022/01/31 03:32:48;;;;;;;1.27;1.20;;;4.40;99.90;;;;;;5070532;28;20282;-62
2022/01/31 03:35:17;;;;;;;2.30;1.70;;;4.40;99.90;;;;;;5071123;28;20231;-62
2022/01/31 03:37:44;;;;;;;1.53;1.43;;;4.40;99.90;;;;;;5071037;28;20812;-62
2022/01/31 03:40:12;;;;;;;2.13;1.63;;;4.50;99.90;;;;;;5070948;28;20215;-61
2022/01/31 03:42:39;;;;;;;1.37;1.27;;;4.50;99.90;;;;;;5071428;28;20210;-62
2022/01/31 03:45:08;;;;;;;1.50;1.40;;;4.60;99.90;;;;;;5072221;28;20319;-61
2022/01/31 03:47:43;;;;;;;1.50;1.33;;;4.70;99.90;;;;;;5075585;28;20235;-63
2022/01/31 03:50:10;;;;;;;1.30;1.20;;;4.90;99.90;;;;;;5075381;28;20191;-62
2022/01/31 03:52:37;;;;;;;1.60;1.50;;;4.90;99.90;;;;;;5075692;28;20294;-63
2022/01/31 03:55:05;;;;;;;1.50;1.40;;;4.90;99.90;;;;;;5076906;28;20238;-62
2022/01/31 03:57:33;;;;;;;1.57;1.47;;;5.00;99.90;;;;;;5074465;28;20203;-63
2022/01/31 04:00:01;;;;;;;1.40;1.37;;;5.00;99.90;;;;;;5074957;28;20260;-60
2022/01/31 04:02:28;;;;;;;1.50;1.40;;;5.10;99.90;;;;;;5074894;28;20661;-62
2022/01/31 04:04:56;;;;;;;1.50;1.40;;;5.20;99.90;;;;;;5075125;28;20314;-61
2022/01/31 04:07:23;;;;;;;1.40;1.30;;;5.20;99.90;;;;;;5077851;28;20210;-62
2022/01/31 04:09:50;;;;;;;1.77;1.40;;;5.20;99.90;;;;;;5077676;28;20297;-62
2022/01/31 04:12:17;;;;;;;1.80;1.53;;;5.20;99.90;;;;;;5075515;28;20301;-62
2022/01/31 04:14:44;;;;;;;1.47;1.37;;;5.20;99.90;;;;;;5075511;28;20203;-62
2022/01/31 04:17:11;;;;;;;1.40;1.30;;;5.30;99.90;;;;;;5074533;28;20242;-62
2022/01/31 04:19:39;;;;;;;1.50;1.40;;;5.30;99.90;;;;;;5075081;28;20277;-62
2022/01/31 04:22:11;;;;;;;1.70;1.60;;;5.30;99.90;;;;;;5088094;28;20211;-62
2022/01/31 04:24:40;;;;;;;1.60;1.50;;;5.40;99.90;;;;;;5092675;28;20219;-63
2022/01/31 04:27:08;;;;;;;1.70;1.40;;;5.40;99.90;;;;;;5093104;28;20229;-62
2022/01/31 04:29:38;;;;;;;1.57;1.47;;;5.50;99.90;;;;;;5091319;28;20232;-62
2022/01/31 04:32:05;;;;;;;1.47;1.20;;;5.50;99.90;;;;;;5075204;28;20184;-63
2022/01/31 04:34:32;;;;;;;1.30;1.20;;;5.50;99.90;;;;;;5074658;28;20207;-63
2022/01/31 04:36:59;;;;;;;1.47;1.37;;;5.60;99.90;;;;;;5074007;28;20756;-61
2022/01/31 04:39:29;;;;;;;1.57;1.47;;;5.70;99.90;;;;;;5074296;28;20223;-64
2022/01/31 04:41:56;;;;;;;1.50;1.40;;;5.70;99.90;;;;;;5074366;28;20718;-63
2022/01/31 04:44:24;;;;;;;1.30;1.27;;;5.70;99.90;;;;;;5074749;28;20211;-62
2022/01/31 04:46:51;;;;;;;1.60;1.50;;;5.80;99.90;;;;;;5075060;28;20218;-62
2022/01/31 04:49:19;;;;;;;1.67;1.57;;;5.80;99.90;;;;;;5075227;28;20223;-62
2022/01/31 04:51:46;;;;;;;1.50;1.40;;;5.70;99.90;;;;;;5074774;28;20199;-63
2022/01/31 04:54:13;;;;;;;1.50;1.40;;;5.80;99.90;;;;;;5074743;28;20253;-61
2022/01/31 04:56:42;;;;;;;1.40;1.30;;;5.80;99.90;;;;;;5074262;28;20239;-62
2022/01/31 04:59:09;;;;;;;1.50;1.40;;;5.90;99.90;;;;;;5075378;28;20728;-62
2022/01/31 05:01:38;;;;;;;1.40;1.30;;;5.90;99.90;;;;;;5077092;28;20294;-62
2022/01/31 05:04:06;;;;;;;1.50;1.40;;;5.90;99.90;;;;;;5076705;28;20307;-62
2022/01/31 05:06:36;;;;;;;1.30;1.20;;;6.00;99.90;;;;;;5076159;28;20791;-63
2022/01/31 05:09:03;;;;;;;1.50;1.40;;;6.00;99.90;;;;;;5076761;28;20638;-62
2022/01/31 05:11:31;;;;;;;1.20;1.20;;;6.10;99.90;;;;;;5076723;28;20207;-63
2022/01/31 05:13:59;;;;;;;1.40;1.30;;;6.20;99.90;;;;;;5076501;28;20272;-61
2022/01/31 05:16:26;;;;;;;1.60;1.50;;;6.20;99.90;;;;;;5079516;28;20227;-63
2022/01/31 05:18:53;;;;;;;1.50;1.40;;;6.20;99.90;;;;;;5082781;28;20246;-63
2022/01/31 05:21:20;;;;;;;1.60;1.50;;;6.20;99.90;;;;;;5054270;28;20231;-62
2022/01/31 05:23:49;;;;;;;1.13;1.07;;;6.30;99.90;;;;;;5054130;28;20200;-62
2022/01/31 05:26:16;;;;;;;1.50;1.40;;;6.40;99.90;;;;;;5054791;28;20223;-63
2022/01/31 05:28:43;;;;;;;1.50;1.40;;;6.40;99.90;;;;;;5054389;28;20232;-62
2022/01/31 05:31:11;;;;;;;1.50;1.40;;;6.50;99.90;;;;;;5056381;28;20634;-62
2022/01/31 05:33:38;;;;;;;1.50;1.40;;;6.50;99.90;;;;;;5055997;28;20232;-62
2022/01/31 05:36:06;;;;;;;1.60;1.50;;;6.60;99.90;;;;;;5056717;28;20228;-62
2022/01/31 05:38:36;;;;;;;1.40;1.30;;;6.60;99.90;;;;;;5057704;28;20223;-62
2022/01/31 05:41:06;;;;;;;1.53;1.43;;;6.60;99.90;;;;;;5055940;28;20204;-62
2022/01/31 05:43:33;;;;;;;1.73;1.43;;;6.60;99.90;;;;;;5056668;28;20231;-61
2022/01/31 05:46:00;;;;;;;1.40;1.30;;;6.70;99.90;;;;;;5055410;28;20259;-62
2022/01/31 05:48:29;;;;;;;3.07;1.67;;;6.70;99.90;;;;;;5052801;28;20224;-61
2022/01/31 05:50:55;;;;;;;1.67;1.57;;;6.70;99.90;;;;;;5053316;28;20228;-62
2022/01/31 05:53:23;;;;;;;1.43;1.33;;;6.80;99.90;;;;;;5053005;28;20204;-63
2022/01/31 05:55:50;;;;;;;1.20;1.20;;;6.80;99.90;;;;;;5056794;28;20224;-62
2022/01/31 05:58:17;;;;;;;1.50;1.40;;;6.80;99.90;;;;;;5059482;28;20254;-61
2022/01/31 06:00:44;;;;;;;1.10;1.10;;;6.80;99.90;;;;;;5054694;28;20208;-62
2022/01/31 06:03:11;;;;;;;1.40;1.30;;;6.90;99.90;;;;;;5057705;28;20208;-61
2022/01/31 06:05:39;;;;;;;1.50;1.40;;;6.90;99.90;;;;;;5059202;28;20769;-61
2022/01/31 06:08:06;;;;;;;1.50;1.40;;;6.80;99.90;;;;;;5057989;28;20232;-61
2022/01/31 06:10:40;;;;;;;1.40;1.30;;;6.90;99.90;;;;;;5056968;28;20208;-63
2022/01/31 06:13:07;;;;;;;1.30;1.20;;;6.90;99.90;;;;;;5055165;28;20273;-62
2022/01/31 06:15:33;;;;;;;1.80;1.70;;;6.90;99.90;;;;;;5055724;28;20223;-63
2022/01/31 06:18:00;;;;;;;1.73;1.63;;;7.40;99.90;;;;;;5058842;28;20259;-64
2022/01/31 06:20:27;;;;;;;1.70;1.60;;;8.40;99.90;;;;;;5061282;28;20208;-65
2022/01/31 06:22:56;;;;;;;1.73;1.60;;;9.10;99.90;;;;;;5061889;28;20283;-65
2022/01/31 06:25:23;;;;;;;1.40;1.30;;;9.50;99.90;;;;;;5076346;28;20235;-65
2022/01/31 06:27:50;;;;;;;1.30;1.20;;;10.00;99.90;;;;;;5062295;28;20247;-64
2022/01/31 06:30:17;;;;;;;1.20;1.20;;;10.30;99.90;;;;;;5061990;28;20191;-63
2022/01/31 06:32:45;;;;;;;1.50;1.40;;;10.30;99.90;;;;;;5065276;28;20860;-63
2022/01/31 06:35:13;;;;;;;1.43;1.33;;;10.30;99.90;;;;;;5072015;28;20292;-65
2022/01/31 06:37:40;;;;;;;1.50;1.37;;;10.40;99.90;;;;;;5071751;28;20314;-62
2022/01/31 06:40:09;;;;;;;1.03;1.03;;;10.00;99.90;;;;;;5071893;28;20213;-62
2022/01/31 06:42:36;;;;;;;1.60;1.20;;;9.30;99.90;;;;;;5071848;28;20207;-63
2022/01/31 06:45:03;;;;;;;1.50;1.40;;;8.70;99.90;;;;;;5071226;28;20334;-61
2022/01/31 06:47:30;;;;;;;1.10;1.00;;;8.10;99.90;;;;;;5071855;28;20199;-61
2022/01/31 06:49:57;;;;;;;1.33;1.23;;;7.70;99.90;;;;;;5064571;28;20295;-61
2022/01/31 06:52:25;;;;;;;1.00;1.00;;;7.50;99.90;;;;;;5051107;28;20299;-64
2022/01/31 06:54:54;;;;;;;1.10;1.10;;;7.40;99.90;;;;;;5051527;28;20212;-63
2022/01/31 06:57:24;;;;;;;1.10;1.10;;;7.30;99.90;;;;;;5050076;28;20199;-63
2022/01/31 06:59:51;;;;;;;1.00;1.00;;;7.30;99.90;;;;;;5051410;28;20207;-62
2022/01/31 07:02:18;;;;;;;1.40;1.30;;;7.10;99.90;;;;;;5039821;28;20212;-63
2022/01/31 07:04:44;;;;;;;1.23;1.13;;;7.00;99.90;;;;;;5039266;28;20284;-62
2022/01/31 07:10:33;;;;;;;1.23;1.13;;;6.70;99.90;;;;;;5053843;28;20863;-62
2022/01/31 07:13:03;;;;;;;1.27;1.23;;;6.60;99.90;;;;;;5051006;28;20630;-61
2022/01/31 07:15:30;;;;;;;1.10;1.10;;;6.60;99.90;;;;;;5051243;28;20290;-62
2022/01/31 07:17:57;;;;;;;1.53;1.43;;;6.70;99.90;;;;;;5051683;28;20306;-63
2022/01/31 07:20:35;;;;;;;1.30;1.30;;;6.60;99.90;;;;;;5056873;28;20243;-62
2022/01/31 07:23:08;;;;;;;1.27;1.20;;;6.60;99.90;;;;;;5058282;28;20231;-63
2022/01/31 07:25:36;;;;;;;1.50;1.40;;;6.50;99.90;;;;;;5055371;28;20224;-63
2022/01/31 07:28:07;;;;;;;1.20;1.20;;;6.40;99.90;;;;;;5062757;28;20219;-64
2022/01/31 07:30:34;;;;;;;1.10;1.10;;;6.40;99.90;;;;;;5064862;28;20319;-62
2022/01/31 07:33:02;;;;;;;1.30;1.20;;;6.40;99.90;;;;;;5075091;28;20286;-62
2022/01/31 07:35:29;;;;;;;1.57;1.40;;;6.30;99.90;;;;;;5074768;28;20235;-62
2022/01/31 07:37:56;;;;;;;1.30;1.20;;;6.30;99.90;;;;;;5075012;28;20800;-63
2022/01/31 07:40:23;;;;;;;1.00;1.00;;;6.20;99.90;;;;;;5075020;28;20313;-62
2022/01/31 07:42:50;;;;;;;1.30;1.03;;;6.30;99.90;;;;;;5035012;28;20204;-61
2022/01/31 07:45:18;;;;;;;1.10;1.10;;;6.20;99.90;;;;;;5034731;28;20359;-62
2022/01/31 07:47:45;;;;;;;1.23;1.20;;;6.20;99.90;;;;;;5035168;28;20235;-63
2022/01/31 07:50:13;;;;;;;1.00;1.00;;;6.20;99.90;;;;;;5035371;28;20208;-62
2022/01/31 07:52:40;;;;;;;1.27;1.23;;;6.20;99.90;;;;;;5035292;28;20308;-61
2022/01/31 07:55:08;;;;;;;1.10;1.10;;;6.10;99.90;;;;;;5034987;28;20200;-62
2022/01/31 07:57:35;;;;;;;1.03;1.03;;;6.20;99.90;;;;;;5034771;28;20200;-62
2022/01/31 08:00:04;;;;;;;1.00;1.00;;;6.10;99.90;;;;;;5035205;28;20225;-61
2022/01/31 08:02:32;;;;;;;0.97;0.97;;;6.20;99.90;;;;;;5051205;28;20208;-63
2022/01/31 08:04:59;;;;;;;1.10;1.10;;;6.10;99.90;;;;;;5056738;28;20287;-62
2022/01/31 08:07:26;;;;;;;1.30;1.30;;;6.10;99.90;;;;;;5055133;28;20224;-64
2022/01/31 08:09:53;;;;;;;1.10;1.10;;;6.20;99.90;;;;;;5042969;28;20227;-61
2022/01/31 08:12:19;;;;;;;1.03;1.03;;;6.20;99.90;;;;;;5040445;28;20287;-63
2022/01/31 08:14:48;;;;;;;0.90;0.90;;;6.20;99.90;;;;;;5043912;28;20207;-62
2022/01/31 08:17:14;;;;;;;1.20;1.20;;;6.20;99.90;;;;;;5048501;28;20197;-62
2022/01/31 08:19:43;;;;;;;1.10;1.10;;;6.20;99.90;;;;;;5036722;28;20328;-64
2022/01/31 08:22:10;;;;;;;1.13;1.10;;;6.10;99.90;;;;;;5034132;28;20296;-63
2022/01/31 08:24:36;;;;;;;0.90;0.90;;;6.20;99.90;;;;;;5040025;28;20207;-63
2022/01/31 08:27:04;;;;;;;0.90;0.90;;;6.10;99.90;;;;;;5033797;28;20259;-63
2022/01/31 08:29:35;;;;;;;1.10;1.10;;;6.10;99.90;;;;;;5040676;28;20248;-61
2022/01/31 08:32:06;;;;;;;1.00;1.00;;;6.10;99.90;;;;;;5060437;28;20202;-64
2022/01/31 08:37:15;;;;;;;1.03;1.03;;;6.10;99.90;;;;;;5049516;28;20188;-62
2022/01/31 08:39:43;;;;;;;0.97;0.97;;;6.10;99.90;;;;;;5058351;28;20591;-63
2022/01/31 08:42:10;;;;;;;0.90;0.90;;;6.10;99.90;;;;;;5060177;28;20780;-62
2022/01/31 08:44:37;;;;;;;1.33;1.10;;;6.10;99.90;;;;;;5059283;28;20199;-62
2022/01/31 08:47:05;;;;;;;1.00;1.00;;;6.10;99.90;;;;;;5055440;28;20243;-63
2022/01/31 08:49:35;;;;;;;0.90;0.90;;;6.00;99.90;;;;;;5057720;28;20259;-62
2022/01/31 08:52:03;;;;;;;0.63;0.63;;;6.00;99.90;;;;;;5048451;28;20231;-62
2022/01/31 08:54:31;;;;;;;0.70;0.70;;;6.00;99.90;;;;;;5053238;28;20232;-61
2022/01/31 08:56:58;;;;;;;0.60;0.60;;;6.00;99.90;;;;;;5086590;28;20761;-63
2022/01/31 08:59:26;;;;;;;0.63;0.63;;;5.90;99.90;;;;;;5064510;28;20239;-62
2022/01/31 09:02:03;;;;;;;0.80;0.80;;;6.00;99.90;;;;;;5054814;28;20199;-62
2022/01/31 09:04:35;;;;;;;0.80;0.80;;;6.00;99.90;;;;;;5052603;28;20242;-62
2022/01/31 09:07:03;;;;;;;0.70;0.70;;;6.10;99.90;;;;;;5052877;28;20220;-62
2022/01/31 09:09:31;;;;;;;0.80;0.80;;;6.20;99.90;;;;;;5043960;28;20666;-62
2022/01/31 09:11:59;;;;;;;0.70;0.70;;;6.30;99.90;;;;;;5033405;28;20244;-62
2022/01/31 09:14:26;;;;;;;0.70;0.70;;;6.40;99.90;;;;;;5033038;28;20228;-62
2022/01/31 09:16:53;;;;;;;0.80;0.80;;;6.50;99.90;;;;;;5033369;28;20288;-62
2022/01/31 09:19:20;;;;;;;0.90;0.90;;;6.70;99.90;;;;;;5033134;28;20311;-62
2022/01/31 09:21:47;;;;;;;0.73;0.73;;;6.70;99.90;;;;;;5059139;28;20195;-63
2022/01/31 09:24:14;;;;;;;0.60;0.60;;;6.60;99.90;;;;;;5056403;28;20240;-61
2022/01/31 09:26:42;;;;;;;0.60;0.60;;;6.70;99.90;;;;;;5032975;28;20260;-62
2022/01/31 09:29:09;;;;;;;0.77;0.77;;;6.70;99.90;;;;;;5032363;28;20710;-61
2022/01/31 09:31:37;;;;;;;1.10;1.10;;;6.70;99.90;;;;;;5037950;28;20203;-62
2022/01/31 09:34:06;;;;;;;1.27;1.27;;;6.60;99.90;;;;;;5055830;28;20211;-62
2022/01/31 09:36:33;;;;;;;1.23;1.23;;;6.60;99.90;;;;;;5049941;28;20209;-62
2022/01/31 09:39:00;;;;;;;2.37;2.27;;;6.60;99.90;;;;;;5040683;28;20659;-62
2022/01/31 09:41:29;;;;;;;1.10;1.10;;;6.60;99.90;;;;;;5040317;28;20298;-62
2022/01/31 09:44:09;;;;;;;1.30;1.30;;;6.70;99.90;;;;;;5048589;28;20298;-62
2022/01/31 09:49:23;;;;;;;0.60;0.60;;;6.60;99.90;;;;;;5071514;28;20709;-62
2022/01/31 09:51:50;;;;;;;0.70;0.70;;;6.50;99.90;;;;;;5068923;28;20199;-61
2022/01/31 09:54:17;;;;;;;0.50;0.50;;;6.60;99.90;;;;;;5066468;28;20204;-63
2022/01/31 09:56:45;;;;;;;0.90;0.90;;;6.60;99.90;;;;;;5060258;28;20230;-63
2022/01/31 09:59:16;;;;;;;0.80;0.80;;;6.70;99.90;;;;;;5060335;28;20258;-62
2022/01/31 10:01:46;;;;;;;0.60;0.60;;;6.70;99.90;;;;;;5063587;28;20223;-63
2022/01/31 10:04:17;;;;;;;0.80;0.80;;;6.80;99.90;;;;;;5062574;28;20652;-62
2022/01/31 10:06:46;;;;;;;0.70;0.70;;;6.80;99.90;;;;;;5060679;28;20199;-63
2022/01/31 10:09:17;;;;;;;0.90;0.90;;;6.90;99.90;;;;;;5058128;28;20307;-64
2022/01/31 10:11:50;;;;;;;0.57;0.57;;;7.00;99.90;;;;;;5071435;28;20176;-62
2022/01/31 10:17:08;;;;;;;1.53;1.30;;;7.10;99.90;;;;;;5075373;28;20194;-62
2022/01/31 10:19:40;;;;;;;1.10;1.00;;;7.30;99.90;;;;;;5068584;28;20219;-63
2022/01/31 10:22:09;;;;;;;0.93;0.93;;;7.20;99.90;;;;;;5062920;28;20610;-62
2022/01/31 10:24:37;;;;;;;0.83;0.83;;;7.20;99.90;;;;;;5062610;28;20573;-62
2022/01/31 10:27:10;;;;;;;0.90;0.90;;;7.30;99.90;;;;;;5060214;28;20216;-61
2022/01/31 10:29:41;;;;;;;0.70;0.70;;;7.30;99.90;;;;;;5066102;28;20318;-63
2022/01/31 10:32:12;;;;;;;0.70;0.70;;;7.30;99.90;;;;;;5068454;28;20284;-62
2022/01/31 10:34:46;;;;;;;1.10;1.00;;;7.30;99.90;;;;;;5077671;28;20195;-62
2022/01/31 10:37:15;;;;;;;0.90;0.90;;;7.20;99.90;;;;;;5069939;28;20237;-61
2022/01/31 10:54:00;;;;;;;1.03;0.97;;;7.30;99.90;;;;;;5066989;28;20632;-61
2022/01/31 10:56:38;;;;;;;1.00;0.97;;;7.30;99.90;;;;;;5065739;28;20728;-61
2022/01/31 10:59:08;;;;;;;0.60;0.60;;;7.30;99.90;;;;;;5068750;28;20222;-62
2022/01/31 11:01:38;;;;;;;0.80;0.80;;;7.30;99.90;;;;;;5068205;28;20624;-62
2022/01/31 11:04:07;;;;;;;0.80;0.80;;;7.30;99.90;;;;;;5068198;28;20680;-61
2022/01/31 11:06:34;;;;;;;0.73;0.73;;;7.30;99.90;;;;;;5066470;28;20250;-61
2022/01/31 11:09:04;;;;;;;0.93;0.90;;;7.30;99.90;;;;;;5070597;28;20305;-62
2022/01/31 11:11:31;;;;;;;0.90;0.90;;;7.40;99.90;;;;;;5071445;28;20195;-62
2022/01/31 11:13:59;;;;;;;1.00;1.00;;;7.40;99.90;;;;;;5072523;28;20199;-63
2022/01/31 11:16:28;;;;;;;0.80;0.80;;;7.30;99.90;;;;;;5068376;28;20195;-62
2022/01/31 11:19:00;;;;;;;0.97;0.90;;;7.30;99.90;;;;;;5067646;28;20247;-63
2022/01/31 11:21:30;;;;;;;0.90;0.90;;;7.20;99.90;;;;;;5070657;28;20256;-63
2022/01/31 11:24:01;;;;;;;1.00;1.00;;;7.20;99.90;;;;;;5063164;28;20203;-64
2022/01/31 11:26:36;;;;;;;0.90;0.90;;;7.20;99.90;;;;;;5056304;28;20220;-63
2022/01/31 11:29:05;;;;;;;1.10;1.00;;;7.20;99.90;;;;;;5070008;28;20220;-64
2022/01/31 11:31:36;;;;;;;0.83;0.83;;;7.20;99.90;;;;;;5062810;28;20199;-63
2022/01/31 11:34:05;;;;;;;1.23;1.17;;;7.10;99.90;;;;;;5054430;28;20205;-64
2022/01/31 11:36:35;;;;;;;0.80;0.80;;;7.10;99.90;;;;;;5036348;28;20279;-61
2022/01/31 11:39:05;;;;;;;1.10;1.00;;;7.10;99.90;;;;;;5045964;28;20211;-62
2022/01/31 11:41:33;;;;;;;0.93;0.93;;;7.10;99.90;;;;;;5051244;28;20196;-62
2022/01/31 11:44:06;;;;;;;0.90;0.90;;;7.10;99.90;;;;;;5059868;28;20257;-64
2022/01/31 11:46:35;;;;;;;0.87;0.87;;;7.10;99.90;;;;;;5059623;28;20292;-66
2022/01/31 11:49:10;;;;;;;0.90;0.90;;;7.10;99.90;;;;;;5063628;28;20218;-64
2022/01/31 11:52:04;;;;;;;1.20;1.10;;;7.10;99.90;;;;;;5055231;28;20200;-62
2022/01/31 11:54:32;;;;;;;0.97;0.87;;;7.10;99.90;;;;;;5065507;28;20221;-63
2022/01/31 11:56:58;;;;;;;0.73;0.73;;;7.20;99.90;;;;;;5054601;28;20227;-61
2022/01/31 11:59:26;;;;;;;0.70;0.70;;;7.20;99.90;;;;;;5053666;28;20645;-62
2022/01/31 12:01:55;;;;;;;0.97;0.97;;;7.20;99.90;;;;;;5052272;28;20183;-62
2022/01/31 12:04:24;;;;;;;1.20;1.10;;;7.30;99.90;;;;;;5055287;28;20258;-63
2022/01/31 12:06:51;;;;;;;1.30;1.20;;;7.30;99.90;;;;;;5059676;28;20373;-62
2022/01/31 12:09:21;;;;;;;0.80;0.80;;;7.40;99.90;;;;;;5064087;28;20731;-61
2022/01/31 12:12:04;;;;;;;1.00;1.00;;;7.40;99.90;;;;;;5061225;28;20202;-62
2022/01/31 12:14:43;;;;;;;0.90;0.90;;;7.40;99.90;;;;;;5064058;28;20196;-62
2022/01/31 12:17:51;;;;;;;1.03;1.00;;;7.50;99.90;;;;;;5067061;28;20211;-61
2022/01/31 12:23:35;;;;;;;0.80;0.80;;;7.50;99.90;;;;;;5074337;28;20199;-61
2022/01/31 12:26:02;;;;;;;0.93;0.90;;;7.50;99.90;;;;;;5079113;28;20203;-61
2022/01/31 12:28:37;;;;;;;1.03;0.93;;;7.50;99.90;;;;;;5074399;28;20257;-62
2022/01/31 12:31:28;;;;;;;1.20;1.10;;;7.50;99.90;;;;;;5077255;28;20246;-61
2022/01/31 12:33:55;;;;;;;1.03;1.00;;;7.50;99.90;;;;;;5077953;28;20221;-63
2022/01/31 12:36:50;;;;;;;0.70;0.70;;;7.40;99.90;;;;;;5069180;28;20747;-62
2022/01/31 12:39:56;;;;;;;1.20;1.10;;;7.40;99.90;;;;;;5065091;28;20219;-62
2022/01/31 12:46:05;;;;;;;0.90;0.90;;;7.40;99.90;;;;;;5049733;28;20214;-62
2022/01/31 12:48:32;;;;;;;0.60;0.60;;;7.40;99.90;;;;;;5059550;28;20270;-64
2022/01/31 12:51:08;;;;;;;1.00;1.00;;;7.40;99.90;;;;;;5064803;28;20357;-61
2022/01/31 12:53:46;;;;;;;0.87;0.87;;;7.40;99.90;;;;;;5062574;28;20210;-63
2022/01/31 12:56:20;;;;;;;0.90;0.90;;;7.40;99.90;;;;;;5068059;28;20208;-63
2022/01/31 12:58:50;;;;;;;0.90;0.90;;;7.30;99.90;;;;;;5068768;28;20266;-63
2022/01/31 13:01:19;;;;;;;0.80;0.80;;;7.30;99.90;;;;;;5067410;28;20211;-63
2022/01/31 13:03:49;;;;;;;1.63;1.03;;;7.30;99.90;;;;;;5068664;28;20674;-63
2022/01/31 13:06:41;;;;;;;0.80;0.80;;;7.40;99.90;;;;;;5069689;28;20302;-62
2022/01/31 13:09:15;;;;;;;0.80;0.80;;;7.40;99.90;;;;;;5044362;28;20263;-63
2022/01/31 13:11:44;;;;;;;1.00;1.00;;;7.40;99.90;;;;;;5068811;28;20195;-62
2022/01/31 13:14:14;;;;;;;1.00;1.00;;;7.40;99.90;;;;;;5073965;28;20219;-63
2022/01/31 13:16:51;;;;;;;0.80;0.80;;;7.40;99.90;;;;;;5070356;28;20246;-61
2022/01/31 13:19:21;;;;;;;1.20;1.00;;;7.30;99.90;;;;;;5071388;28;20258;-63
2022/01/31 13:21:50;;;;;;;1.20;1.10;;;7.40;99.90;;;;;;5072577;28;20198;-62
2022/01/31 13:24:19;;;;;;;0.83;0.83;;;7.40;99.90;;;;;;5066722;28;20211;-63
2022/01/31 13:26:55;;;;;;;1.03;1.00;;;7.30;99.90;;;;;;5071202;28;20196;-61
2022/01/31 13:29:30;;;;;;;1.10;1.00;;;7.40;99.90;;;;;;5075500;28;20249;-62
2022/01/31 13:31:58;;;;;;;1.10;1.00;;;7.40;99.90;;;;;;5072645;28;20234;-64
2022/01/31 13:34:37;;;;;;;0.80;0.80;;;7.40;99.90;;;;;;5071267;28;20278;-63
2022/01/31 13:37:04;;;;;;;1.03;0.97;;;7.40;99.90;;;;;;5064331;28;20677;-62
2022/01/31 13:39:33;;;;;;;0.87;0.87;;;7.40;99.90;;;;;;5068341;28;20708;-63